Aviation Digital Data Service (ADDS)

Output produced by METARs form (1739 UTC 30 October 2020)
found at http://www.aviationweather.gov/metar/data/
 
KJAX 301656Z VRB05KT 10SM CLR 19/09 A3003 RMK AO2 SLP169 T01940094 $
KJAX 301731Z 3018/3118 33007KT P6SM SKC 
     FM310600 03005KT P6SM FEW030 SCT250 
     FM311200 04010KT P6SM VCSH SCT025 BKN050